Time;durP1;ratioP1;P1;durP2;ratioP2;P2;SDS_P1;SDS_P2;PMS_P1;PMS_P2;Temp;Humidity;BMP_temperature;BMP_pressure;BME280_temperature;BME280_humidity;BME280_pressure;Samples;Min_cycle;Max_cycle;Signal;HPM_P1;HPM_P2
2021/07/23 00:01:35;;;;;;;0.20;0.20;;;;;;;23.18;49.19;102152.06;5024352;28;20048;-71
2021/07/23 00:04:00;;;;;;;0.30;0.30;;;;;;;23.19;49.32;102151.06;5019596;28;20082;-71
2021/07/23 00:06:26;;;;;;;0.20;0.20;;;;;;;23.19;49.28;102150.25;5012832;28;20045;-71
2021/07/23 00:08:51;;;;;;;0.20;0.20;;;;;;;23.12;49.28;102146.59;5022750;28;20481;-71
2021/07/23 00:11:17;;;;;;;0.13;0.13;;;;;;;23.19;49.33;102150.25;5004965;28;20287;-71
2021/07/23 00:13:42;;;;;;;0.10;0.10;;;;;;;23.19;49.35;102147.59;5023526;28;20029;-70
2021/07/23 00:16:08;;;;;;;0.10;0.10;;;;;;;23.16;49.36;102145.25;5023090;28;20049;-70
2021/07/23 00:18:33;;;;;;;0.22;0.22;;;;;;;23.13;49.41;102145.59;5022192;28;20126;-71
2021/07/23 00:20:59;;;;;;;0.17;0.17;;;;;;;23.15;49.40;102147.06;5023204;28;20483;-71
2021/07/23 00:23:25;;;;;;;0.10;0.10;;;;;;;23.14;49.73;102149.91;5020535;28;20373;-70
2021/07/23 00:25:50;;;;;;;0.20;0.20;;;;;;;23.12;49.62;102142.09;5022739;28;20099;-71
2021/07/23 00:28:16;;;;;;;0.20;0.20;;;;;;;23.12;49.78;102143.94;5023583;28;20385;-71
2021/07/23 00:30:41;;;;;;;0.10;0.10;;;;;;;23.16;49.65;102148.75;5023753;28;20116;-71
2021/07/23 00:33:07;;;;;;;0.20;0.20;;;;;;;23.15;49.84;102147.06;5022453;28;20038;-70
2021/07/23 00:35:33;;;;;;;0.20;0.20;;;;;;;23.12;49.92;102152.75;5023736;28;20551;-71
2021/07/23 00:37:59;;;;;;;0.20;0.20;;;;;;;23.12;49.82;102139.44;5015268;28;20040;-71
2021/07/23 00:40:25;;;;;;;0.30;0.30;;;;;;;23.12;49.56;102143.94;5020904;28;20065;-71
2021/07/23 00:42:51;;;;;;;0.10;0.10;;;;;;;23.11;49.74;102139.63;5027740;28;20476;-71
2021/07/23 00:45:19;;;;;;;0.25;0.25;;;;;;;23.13;49.58;102143.75;5025006;28;20049;-71
2021/07/23 00:47:52;;;;;;;0.10;0.10;;;;;;;23.10;49.96;102138.78;5024865;28;20049;-70
2021/07/23 00:50:18;;;;;;;0.20;0.20;;;;;;;23.11;50.11;102134.31;5026388;28;20515;-71
2021/07/23 00:52:45;;;;;;;0.17;0.17;;;;;;;23.08;49.94;102121.38;5024601;28;20026;-71
2021/07/23 00:55:12;;;;;;;0.15;0.15;;;;;;;23.12;49.92;102125.34;4992738;28;20457;-70
2021/07/23 00:57:41;;;;;;;0.20;0.20;;;;;;;23.10;49.79;102122.84;5040114;28;20042;-70
2021/07/23 01:00:07;;;;;;;0.20;0.20;;;;;;;23.09;50.20;102123.03;5026758;28;20132;-71
2021/07/23 01:02:47;;;;;;;0.20;0.20;;;;;;;23.08;50.32;102124.84;5022217;28;20033;-71
2021/07/23 01:05:14;;;;;;;0.10;0.10;;;;;;;23.09;49.93;102120.38;5019892;28;20034;-71
2021/07/23 01:07:39;;;;;;;0.20;0.20;;;;;;;23.11;50.28;102123.69;5020118;28;20741;-71
2021/07/23 01:10:06;;;;;;;0.20;0.20;;;;;;;23.07;49.95;102120.53;5009300;28;20152;-71
2021/07/23 01:12:51;;;;;;;0.20;0.20;;;;;;;23.08;50.29;102116.06;5024436;28;20091;-71
2021/07/23 01:15:17;;;;;;;0.20;0.20;;;;;;;23.05;50.18;102111.91;5024126;28;20129;-71
2021/07/23 01:17:43;;;;;;;0.20;0.20;;;;;;;23.08;50.31;102118.72;5007531;28;20029;-71
2021/07/23 01:20:17;;;;;;;0.20;0.20;;;;;;;23.07;50.26;102117.88;5025679;28;20056;-71
2021/07/23 01:22:44;;;;;;;0.20;0.20;;;;;;;23.09;50.49;102120.38;5026731;28;20037;-71
2021/07/23 01:25:13;;;;;;;0.10;0.10;;;;;;;23.08;50.46;102121.38;5022266;28;20075;-71
2021/07/23 01:27:52;;;;;;;0.35;0.35;;;;;;;23.06;50.11;102118.88;5026375;28;20025;-70
2021/07/23 01:30:52;;;;;;;0.10;0.10;;;;;;;23.07;50.26;102119.72;5031930;28;20045;-71
2021/07/23 01:33:31;;;;;;;0.20;0.20;;;;;;;23.06;50.29;102113.56;5025472;28;20483;-71
2021/07/23 01:35:59;;;;;;;0.20;0.20;;;;;;;23.04;50.39;102115.56;5017222;28;20048;-70
2021/07/23 01:38:27;;;;;;;0.10;0.10;;;;;;;23.05;50.56;102119.88;5024341;28;20099;-71
2021/07/23 01:40:53;;;;;;;0.30;0.30;;;;;;;23.04;50.66;102104.13;5026327;28;20045;-71
2021/07/23 01:43:20;;;;;;;0.25;0.25;;;;;;;23.08;50.61;102111.56;5024925;28;20731;-72
2021/07/23 01:45:46;;;;;;;0.22;0.22;;;;;;;23.03;50.60;102097.97;5025637;28;20435;-71
2021/07/23 01:48:50;;;;;;;0.30;0.30;;;;;;;23.03;50.70;102102.47;5026027;28;20097;-71
2021/07/23 01:51:30;;;;;;;0.30;0.30;;;;;;;23.04;50.52;102104.94;5009675;28;20437;-71
2021/07/23 01:53:56;;;;;;;0.32;0.32;;;;;;;23.02;50.67;102106.13;5026048;28;20037;-71
2021/07/23 01:56:23;;;;;;;0.20;0.20;;;;;;;23.01;50.59;102097.31;5022934;28;20068;-70
2021/07/23 01:58:53;;;;;;;0.40;0.40;;;;;;;23.04;50.51;102106.78;5022746;28;20064;-71
2021/07/23 02:01:22;;;;;;;0.20;0.20;;;;;;;23.03;50.45;102105.13;5023293;28;20033;-71
2021/07/23 02:04:01;;;;;;;0.30;0.30;;;;;;;23.04;50.42;102104.94;5005655;28;20038;-71
2021/07/23 02:06:27;;;;;;;0.10;0.10;;;;;;;23.03;50.81;102097.97;5041941;28;20465;-71
2021/07/23 02:08:52;;;;;;;0.22;0.22;;;;;;;23.03;50.92;102099.81;5022663;28;20049;-71
2021/07/23 02:11:19;;;;;;;0.32;0.32;;;;;;;23.00;50.91;102100.16;5039382;28;20095;-71
2021/07/23 02:13:45;;;;;;;0.30;0.30;;;;;;;23.02;50.72;102101.63;5025125;28;20069;-71
2021/07/23 02:16:11;;;;;;;0.20;0.20;;;;;;;23.02;50.63;102100.81;5024633;28;20077;-70
2021/07/23 02:18:36;;;;;;;0.38;0.38;;;;;;;23.04;50.63;102101.47;5008080;28;20140;-71
2021/07/23 02:21:08;;;;;;;0.40;0.40;;;;;;;22.99;50.75;102088.69;5024184;28;20128;-71
2021/07/23 02:23:34;;;;;;;0.40;0.40;;;;;;;23.02;50.94;102095.50;5008055;28;20065;-71
2021/07/23 02:26:00;;;;;;;0.32;0.32;;;;;;;23.02;50.91;102095.50;5022832;28;20026;-71
2021/07/23 02:28:26;;;;;;;0.30;0.30;;;;;;;23.02;50.67;102092.84;5024707;28;20137;-71
2021/07/23 02:30:54;;;;;;;0.20;0.20;;;;;;;22.99;50.90;102090.53;5006160;28;20574;-71
2021/07/23 02:33:24;;;;;;;0.40;0.40;;;;;;;22.98;51.12;102088.84;5039153;28;20057;-71
2021/07/23 02:35:56;;;;;;;0.22;0.22;;;;;;;22.96;51.02;102088.19;5016861;28;20042;-71
2021/07/23 02:38:22;;;;;;;0.38;0.38;;;;;;;22.99;51.05;102087.88;5036206;28;20041;-71
2021/07/23 02:40:56;;;;;;;0.45;0.45;;;;;;;22.95;51.07;102083.88;5023644;28;20034;-71
2021/07/23 02:43:23;;;;;;;0.20;0.20;;;;;;;23.01;50.94;102092.00;5023243;28;20780;-71
2021/07/23 02:45:50;;;;;;;0.40;0.40;;;;;;;22.98;50.90;102084.38;5037979;28;20480;-72
2021/07/23 02:48:17;;;;;;;0.38;0.38;;;;;;;22.99;51.08;102080.72;5024997;28;20253;-71
2021/07/23 02:50:43;;;;;;;0.43;0.43;;;;;;;22.98;50.92;102071.09;5022403;28;20038;-71
2021/07/23 02:53:09;;;;;;;0.52;0.52;;;;;;;22.97;50.84;102072.06;5023473;28;20675;-71
2021/07/23 02:55:36;;;;;;;0.43;0.43;;;;;;;23.02;51.14;102076.91;5023542;28;20045;-71
2021/07/23 02:58:03;;;;;;;0.30;0.30;;;;;;;23.03;51.14;102073.25;5023707;28;20447;-71
2021/07/23 03:00:30;;;;;;;0.30;0.30;;;;;;;23.00;50.82;102082.38;5029132;28;20060;-71
2021/07/23 03:03:02;;;;;;;0.40;0.40;;;;;;;22.96;51.22;102073.06;5050677;28;20041;-71
2021/07/23 03:05:27;;;;;;;0.32;0.32;;;;;;;22.97;51.35;102077.38;5030533;28;20041;-70
2021/07/23 03:07:54;;;;;;;0.40;0.40;;;;;;;22.99;51.27;102082.56;5021121;28;20033;-71
2021/07/23 03:10:22;;;;;;;0.30;0.30;;;;;;;22.97;50.80;102080.03;5024187;28;20575;-71
2021/07/23 03:12:48;;;;;;;0.50;0.50;;;;;;;22.94;50.93;102069.75;5024358;28;20044;-71
2021/07/23 03:15:14;;;;;;;0.50;0.50;;;;;;;22.97;51.36;102080.03;5021625;28;20053;-71
2021/07/23 03:17:41;;;;;;;0.40;0.40;;;;;;;22.99;51.32;102070.09;5022211;28;20041;-71
2021/07/23 03:20:08;;;;;;;0.40;0.40;;;;;;;22.98;50.95;102075.56;5037195;28;20127;-71
2021/07/23 03:22:38;;;;;;;0.40;0.40;;;;;;;22.96;51.21;102074.91;5023892;28;20424;-71
2021/07/23 03:25:10;;;;;;;0.50;0.50;;;;;;;22.98;51.05;102064.94;5022976;28;20068;-71
2021/07/23 03:27:55;;;;;;;0.43;0.43;;;;;;;23.00;50.93;102069.09;5024479;28;20521;-71
2021/07/23 03:30:28;;;;;;;0.40;0.40;;;;;;;22.99;51.39;102069.28;5020628;28;20068;-71
2021/07/23 03:32:56;;;;;;;0.35;0.35;;;;;;;22.98;51.04;102071.09;5023863;28;20044;-71
2021/07/23 03:35:23;;;;;;;0.50;0.50;;;;;;;22.98;51.00;102070.25;5021659;28;20045;-71
2021/07/23 03:37:49;;;;;;;0.40;0.40;;;;;;;22.99;51.36;102063.97;5007711;28;20075;-71
2021/07/23 03:40:20;;;;;;;0.47;0.47;;;;;;;22.99;51.28;102070.09;5023110;28;20065;-71
2021/07/23 03:42:47;;;;;;;0.40;0.40;;;;;;;22.98;51.54;102070.25;5034197;28;20436;-70
2021/07/23 03:45:21;;;;;;;0.40;0.40;;;;;;;22.94;51.28;102067.09;5005596;28;20519;-71
2021/07/23 03:47:56;;;;;;;0.55;0.55;;;;;;;22.97;51.42;102064.09;5006249;28;20072;-71
2021/07/23 03:50:22;;;;;;;0.50;0.50;;;;;;;22.98;51.47;102070.25;5023228;28;20072;-71
2021/07/23 03:52:59;;;;;;;0.63;0.63;;;;;;;22.94;51.28;102063.63;5025934;28;20052;-71
2021/07/23 03:55:43;;;;;;;0.30;0.30;;;;;;;22.94;51.29;102064.44;5023196;28;20059;-71
2021/07/23 03:58:14;;;;;;;0.50;0.50;;;;;;;22.90;51.46;102066.63;5038003;28;20037;-71
2021/07/23 04:00:41;;;;;;;0.50;0.50;;;;;;;22.97;51.34;102068.59;5021188;28;20553;-71
2021/07/23 04:03:06;;;;;;;0.40;0.40;;;;;;;23.00;51.12;102066.44;5023149;28;20041;-71
2021/07/23 04:05:32;;;;;;;0.40;0.40;;;;;;;22.92;51.31;102053.16;5021360;28;20045;-71
2021/07/23 04:08:03;;;;;;;0.50;0.50;;;;;;;22.94;51.24;102059.13;5022302;28;20033;-71
2021/07/23 04:10:31;;;;;;;0.50;0.50;;;;;;;22.91;51.21;102055.00;4999638;28;20076;-71
2021/07/23 04:12:56;;;;;;;0.40;0.40;;;;;;;22.90;51.48;102069.28;5004982;28;20475;-71
2021/07/23 04:15:22;;;;;;;0.40;0.40;;;;;;;22.93;51.25;102065.44;5025229;28;20037;-71
2021/07/23 04:18:11;;;;;;;0.63;0.63;;;;;;;22.89;51.74;102056.16;5026315;28;20041;-70
2021/07/23 04:20:57;;;;;;;0.40;0.40;;;;;;;22.90;51.58;102057.81;5028368;28;20808;-71
2021/07/23 04:23:23;;;;;;;0.40;0.40;;;;;;;22.92;51.42;102055.81;5041442;28;20104;-71
2021/07/23 04:25:49;;;;;;;0.40;0.40;;;;;;;22.92;51.49;102058.47;5024065;28;20064;-71
2021/07/23 04:28:16;;;;;;;0.50;0.50;;;;;;;22.92;51.28;102054.00;5025692;28;20060;-71
2021/07/23 04:30:44;;;;;;;0.57;0.57;;;;;;;22.92;51.76;102053.16;5026241;28;20495;-71
2021/07/23 04:33:21;;;;;;;0.40;0.40;;;;;;;22.92;51.31;102050.50;5025948;28;20472;-71
2021/07/23 04:36:12;;;;;;;0.52;0.52;;;;;;;22.92;51.59;102051.34;5021712;28;20112;-71
2021/07/23 04:38:38;;;;;;;0.68;0.68;;;;;;;22.92;51.34;102046.03;5023939;28;20073;-71
2021/07/23 04:41:04;;;;;;;0.60;0.60;;;;;;;22.95;51.43;102049.34;5027378;28;20038;-71
2021/07/23 04:43:38;;;;;;;0.40;0.40;;;;;;;22.94;51.42;102048.50;5010613;28;20039;-71
2021/07/23 04:46:05;;;;;;;0.65;0.65;;;;;;;22.91;51.82;102044.38;5022885;28;20083;-71
2021/07/23 04:48:32;;;;;;;0.60;0.60;;;;;;;22.90;51.67;102039.22;5026818;28;20026;-71
2021/07/23 04:51:10;;;;;;;0.60;0.60;;;;;;;22.90;51.53;102037.41;5026343;28;20041;-71
2021/07/23 04:53:41;;;;;;;0.50;0.50;;;;;;;22.89;51.42;102034.94;5027306;28;20411;-71
2021/07/23 04:56:25;;;;;;;0.50;0.50;;;;;;;22.90;51.48;102040.06;5025942;28;20047;-71
2021/07/23 04:58:51;;;;;;;0.50;0.50;;;;;;;22.94;51.51;102042.38;5026594;28;20037;-71
2021/07/23 05:01:17;;;;;;;0.43;0.43;;;;;;;22.95;51.51;102044.03;5027619;28;20423;-71
2021/07/23 05:03:43;;;;;;;0.45;0.45;;;;;;;22.90;51.72;102034.75;5024045;28;20527;-70
2021/07/23 05:06:11;;;;;;;0.45;0.45;;;;;;;22.91;51.42;102041.72;5025323;28;20044;-71
2021/07/23 05:08:37;;;;;;;0.50;0.50;;;;;;;22.91;51.59;102041.72;5002853;28;20038;-71
2021/07/23 05:11:09;;;;;;;0.50;0.50;;;;;;;22.94;51.77;102039.72;5031052;28;20320;-71
2021/07/23 05:13:37;;;;;;;0.38;0.38;;;;;;;22.86;51.61;102032.63;5038297;28;20120;-71
2021/07/23 05:16:04;;;;;;;0.50;0.50;;;;;;;22.95;51.47;102041.38;5024155;28;20053;-70
2021/07/23 05:18:31;;;;;;;0.57;0.57;;;;;;;22.91;51.56;102043.53;5027266;28;20033;-71
2021/07/23 05:20:57;;;;;;;0.50;0.50;;;;;;;22.89;51.72;102041.06;5040113;28;20042;-71
2021/07/23 05:23:23;;;;;;;0.50;0.50;;;;;;;22.89;51.73;102042.88;5026827;28;20038;-71
2021/07/23 05:25:48;;;;;;;0.52;0.52;;;;;;;22.92;51.69;102047.84;5025397;28;20826;-71
2021/07/23 05:28:15;;;;;;;0.47;0.47;;;;;;;22.92;51.87;102045.19;5025434;28;20111;-71
2021/07/23 05:30:41;;;;;;;0.40;0.40;;;;;;;22.93;51.41;102038.88;5024407;28;20026;-70
2021/07/23 05:33:07;;;;;;;0.35;0.35;;;;;;;22.92;51.55;102046.03;5027160;28;20842;-71
2021/07/23 05:35:33;;;;;;;0.60;0.60;;;;;;;22.95;51.59;102044.84;5018693;28;20042;-71
2021/07/23 05:38:01;;;;;;;0.50;0.50;;;;;;;22.80;51.56;102027.94;5030550;28;20144;-69
2021/07/23 05:40:27;;;;;;;0.40;0.40;;;;;;;22.80;51.67;102020.81;5023497;28;20383;-70
2021/07/23 05:42:53;;;;;;;0.60;0.60;;;;;;;22.75;51.86;102017.00;5025252;28;20040;-70
2021/07/23 05:45:22;;;;;;;0.50;0.50;;;;;;;22.92;51.56;102039.88;5040177;28;20525;-70
2021/07/23 05:47:48;;;;;;;0.90;0.90;;;;;;;22.94;51.79;102048.50;5027561;28;20091;-70
2021/07/23 05:50:14;;;;;;;0.63;0.63;;;;;;;22.85;51.60;102036.28;5026549;28;20087;-69
2021/07/23 05:52:40;;;;;;;0.50;0.50;;;;;;;22.91;51.55;102044.38;5020715;28;20065;-69
2021/07/23 05:55:06;;;;;;;0.68;0.68;;;;;;;22.81;51.67;102027.78;5033567;28;20408;-70
2021/07/23 05:57:31;;;;;;;0.60;0.60;;;;;;;22.86;51.94;102035.28;5015709;28;20096;-69
2021/07/23 05:59:57;;;;;;;0.65;0.65;;;;;;;22.82;51.56;102026.00;5025418;28;20067;-69
2021/07/23 06:02:22;;;;;;;0.43;0.43;;;;;;;22.90;51.80;102047.19;5044488;28;20048;-69
2021/07/23 06:04:54;;;;;;;0.60;0.60;;;;;;;22.89;51.63;102038.41;5024938;28;20064;-70
2021/07/23 06:07:20;;;;;;;0.60;0.60;;;;;;;22.89;51.76;102037.56;5028851;28;20044;-70
2021/07/23 06:09:53;;;;;;;0.55;0.55;;;;;;;22.84;51.90;102042.59;5023609;28;20041;-70
2021/07/23 06:12:18;;;;;;;0.50;0.50;;;;;;;22.73;51.91;102022.47;5025990;28;20047;-70
2021/07/23 06:14:44;;;;;;;0.60;0.60;;;;;;;22.79;51.88;102036.91;5026331;28;20053;-70
2021/07/23 06:17:10;;;;;;;0.60;0.60;;;;;;;22.79;51.53;102028.94;5038084;28;20034;-70
2021/07/23 06:19:36;;;;;;;0.80;0.80;;;;;;;22.76;51.53;102024.78;5021173;28;20045;-70
2021/07/23 06:22:03;;;;;;;0.65;0.65;;;;;;;22.83;51.65;102028.47;5022229;28;20412;-70
2021/07/23 06:24:29;;;;;;;0.68;0.68;;;;;;;22.92;51.44;102043.38;5006519;28;20050;-70
2021/07/23 06:26:54;;;;;;;0.65;0.65;;;;;;;22.77;51.43;102023.78;5032723;28;20488;-69
2021/07/23 06:29:20;;;;;;;0.50;0.50;;;;;;;22.83;51.60;102035.63;5024783;28;20041;-70
2021/07/23 06:31:45;;;;;;;0.52;0.52;;;;;;;22.78;51.75;102016.66;5015177;28;20042;-70
2021/07/23 06:34:11;;;;;;;0.50;0.50;;;;;;;22.91;51.62;102040.88;5016543;28;20030;-70
2021/07/23 06:36:36;;;;;;;0.70;0.70;;;;;;;22.87;51.87;102039.59;5025944;28;20056;-70
2021/07/23 06:39:02;;;;;;;0.60;0.60;;;;;;;22.94;51.52;102045.03;5017136;28;20553;-70
2021/07/23 06:41:28;;;;;;;0.82;0.82;;;;;;;22.86;51.84;102033.44;5016349;28;20084;-70
2021/07/23 06:43:53;;;;;;;0.65;0.65;;;;;;;22.79;51.81;102021.78;5027011;28;20050;-70
2021/07/23 06:46:19;;;;;;;0.75;0.75;;;;;;;22.87;51.66;102034.28;5019112;28;20057;-70
2021/07/23 06:48:44;;;;;;;0.65;0.65;;;;;;;23.21;51.83;102041.94;5015324;28;20040;-79
2021/07/23 06:51:10;;;;;;;0.70;0.70;;;;;;;23.21;52.30;102050.75;4993433;28;20806;-69
2021/07/23 06:53:35;;;;;;;0.70;0.70;;;;;;;23.32;52.26;102044.22;5019473;28;20442;-67
2021/07/23 06:56:04;;;;;;;0.63;0.63;;;;;;;23.40;51.57;102051.31;5020301;28;20108;-75
2021/07/23 06:58:30;;;;;;;0.70;0.70;;;;;;;23.51;51.47;102048.25;5024899;28;20037;-77
2021/07/23 07:00:56;;;;;;;0.95;0.68;;;;;;;23.60;51.22;102043.78;5022867;28;20482;-69
2021/07/23 07:03:21;;;;;;;0.70;0.70;;;;;;;23.56;51.50;102053.06;5022024;28;20048;-75
2021/07/23 07:05:50;;;;;;;0.65;0.65;;;;;;;23.38;51.78;102043.53;5023390;28;20045;-76
2021/07/23 07:08:17;;;;;;;0.70;0.70;;;;;;;23.38;51.81;102051.50;5022845;28;20056;-76
2021/07/23 07:10:43;;;;;;;0.77;0.77;;;;;;;23.33;51.87;102056.50;5023184;28;20042;-77
2021/07/23 07:13:08;;;;;;;0.50;0.50;;;;;;;23.30;51.96;102050.69;5022960;28;20076;-77
2021/07/23 07:15:34;;;;;;;0.70;0.70;;;;;;;23.29;51.81;102049.03;5023217;28;20462;-77
2021/07/23 07:18:01;;;;;;;0.60;0.60;;;;;;;23.26;51.86;102049.41;5025028;28;20037;-76
2021/07/23 07:20:28;;;;;;;0.52;0.52;;;;;;;23.25;52.25;102056.53;5023058;28;20045;-77
2021/07/23 07:22:54;;;;;;;1.65;0.68;;;;;;;23.21;52.20;102052.56;5022159;28;20795;-76
2021/07/23 07:25:21;;;;;;;0.60;0.60;;;;;;;23.19;52.25;102060.72;5023412;28;20037;-76
2021/07/23 07:27:46;;;;;;;0.68;0.68;;;;;;;23.19;52.26;102058.06;5021969;28;20049;-76
2021/07/23 07:30:12;;;;;;;0.68;0.68;;;;;;;23.17;52.31;102061.91;5022924;28;20040;-77
2021/07/23 07:32:38;;;;;;;0.93;0.93;;;;;;;23.16;52.36;102058.41;5022275;28;20041;-77
2021/07/23 07:35:04;;;;;;;0.70;0.70;;;;;;;23.16;52.10;102055.75;5033347;28;20083;-77
2021/07/23 07:37:30;;;;;;;0.77;0.77;;;;;;;23.12;52.12;102058.91;5024935;28;20530;-77
2021/07/23 07:39:56;;;;;;;0.50;0.43;;;;;;;23.14;52.30;102062.22;5020301;28;20395;-76
2021/07/23 07:42:21;;;;;;;0.70;0.70;;;;;;;23.11;52.45;102049.28;5021325;28;20025;-76
2021/07/23 07:44:48;;;;;;;0.70;0.70;;;;;;;23.07;52.33;102056.78;5020798;28;20049;-76
2021/07/23 07:47:14;;;;;;;0.70;0.70;;;;;;;23.10;52.52;102060.91;5005646;28;20061;-76
2021/07/23 07:49:40;;;;;;;0.70;0.70;;;;;;;23.09;52.26;102051.28;5020523;28;20064;-76
2021/07/23 07:52:06;;;;;;;0.65;0.65;;;;;;;23.11;52.46;102051.94;5005207;28;20111;-76
2021/07/23 07:54:32;;;;;;;0.70;0.70;;;;;;;23.06;52.33;102041.00;5021115;28;20033;-76
2021/07/23 07:57:04;;;;;;;0.68;0.68;;;;;;;23.12;52.60;102045.63;5022194;28;20041;-76
2021/07/23 07:59:30;;;;;;;0.75;0.75;;;;;;;23.11;52.36;102047.47;5020986;28;20082;-76
2021/07/23 08:01:55;;;;;;;0.70;0.70;;;;;;;23.12;52.36;102049.13;5023839;28;20029;-76
2021/07/23 08:04:21;;;;;;;0.60;0.60;;;;;;;23.09;52.18;102049.47;5021636;28;20041;-76
2021/07/23 08:06:48;;;;;;;0.75;0.75;;;;;;;23.12;52.41;102049.13;5020629;28;20085;-73
2021/07/23 08:09:15;;;;;;;0.70;0.70;;;;;;;23.10;52.39;102042.31;5020803;28;20174;-73
2021/07/23 08:11:41;;;;;;;0.68;0.68;;;;;;;23.10;52.65;102048.47;5022726;28;20040;-73
2021/07/23 08:14:06;;;;;;;0.95;0.95;;;;;;;23.11;52.22;102052.78;5020842;28;20049;-76
2021/07/23 08:16:34;;;;;;;0.88;0.88;;;;;;;23.10;52.22;102051.13;5021976;28;20095;-76
2021/07/23 08:19:01;;;;;;;0.70;0.70;;;;;;;23.10;52.14;102045.81;5036014;28;20056;-76
2021/07/23 08:21:30;;;;;;;0.70;0.70;;;;;;;23.07;52.40;102043.50;5020641;28;20179;-74
2021/07/23 08:23:57;;;;;;;0.88;0.88;;;;;;;23.12;52.46;102046.47;5022663;28;20038;-74
2021/07/23 08:26:23;;;;;;;0.88;0.88;;;;;;;23.18;52.37;102047.63;5020854;28;20064;-74
2021/07/23 08:28:48;;;;;;;0.90;0.90;;;;;;;23.13;52.06;102053.41;5021331;28;20557;-75
2021/07/23 08:31:14;;;;;;;0.60;0.60;;;;;;;23.13;52.36;102049.94;5019772;28;20060;-75
2021/07/23 08:33:42;;;;;;;0.70;0.70;;;;;;;23.09;52.60;102045.97;5023679;28;20041;-74
2021/07/23 08:36:07;;;;;;;0.90;0.88;;;;;;;23.10;52.69;102053.78;5021202;28;20037;-74
2021/07/23 08:38:33;;;;;;;0.68;0.68;;;;;;;23.11;52.27;102050.13;5022737;28;20048;-74
2021/07/23 08:40:58;;;;;;;0.80;0.80;;;;;;;23.13;52.51;102053.41;5021519;28;20403;-78
2021/07/23 08:43:24;;;;;;;0.70;0.70;;;;;;;23.14;52.21;102041.78;5022533;28;20099;-78
2021/07/23 08:45:50;;;;;;;0.70;0.70;;;;;;;23.15;52.42;102042.63;5019734;28;20050;-78
2021/07/23 08:48:16;;;;;;;0.60;0.60;;;;;;;23.16;52.01;102042.47;5022151;28;20041;-78
2021/07/23 08:50:42;;;;;;;0.90;0.90;;;;;;;23.19;52.26;102044.78;5021114;28;20037;-78
2021/07/23 08:53:10;;;;;;;0.95;0.95;;;;;;;23.17;51.96;102040.66;5021365;28;20045;-77
2021/07/23 08:55:39;;;;;;;0.88;0.88;;;;;;;23.16;51.89;102037.16;5021562;28;20356;-77
2021/07/23 08:58:07;;;;;;;0.80;0.80;;;;;;;23.13;52.26;102032.16;5021989;28;20373;-77
2021/07/23 09:00:32;;;;;;;0.82;0.82;;;;;;;23.17;51.81;102032.69;5022014;28;20041;-78
2021/07/23 09:03:09;;;;;;;0.57;0.57;;;;;;;23.19;52.01;102041.31;5027968;28;20033;-78
2021/07/23 09:05:42;;;;;;;0.73;0.73;;;;;;;23.19;51.80;102038.66;5026210;28;20251;-77
2021/07/23 09:08:07;;;;;;;0.88;0.88;;;;;;;23.20;52.00;102037.63;5026338;28;20037;-77
2021/07/23 09:10:34;;;;;;;0.90;0.90;;;;;;;23.21;51.94;102028.66;5025776;28;20095;-77
2021/07/23 09:13:05;;;;;;;0.70;0.70;;;;;;;23.19;51.99;102033.31;5026499;28;21835;-76
2021/07/23 09:15:40;;;;;;;0.90;0.90;;;;;;;23.22;51.54;102038.28;5025051;28;20045;-77
2021/07/23 09:18:35;;;;;;;0.70;0.70;;;;;;;23.21;51.87;102031.31;5025966;28;20472;-76
2021/07/23 09:21:03;;;;;;;0.65;0.65;;;;;;;23.22;51.79;102022.34;5025635;28;20037;-77
2021/07/23 09:23:40;;;;;;;0.90;0.90;;;;;;;23.26;51.67;102023.66;5024532;28;20034;-75
2021/07/23 09:26:08;;;;;;;1.00;1.00;;;;;;;23.25;51.79;102014.03;5022808;28;20029;-76
2021/07/23 09:28:37;;;;;;;0.80;0.80;;;;;;;23.29;51.49;102015.31;5023579;28;20042;-76
2021/07/23 09:31:05;;;;;;;0.97;0.97;;;;;;;23.27;51.53;102014.66;5022840;28;20052;-76
2021/07/23 09:33:39;;;;;;;0.80;0.80;;;;;;;23.32;51.70;102014.97;5024070;28;20441;-76
2021/07/23 09:36:10;;;;;;;0.93;0.93;;;;;;;23.34;51.29;102020.09;5022365;28;20134;-75
2021/07/23 09:38:40;;;;;;;1.10;1.10;;;;;;;23.27;51.49;102004.03;5028062;28;20033;-75
2021/07/23 09:41:27;;;;;;;0.80;0.80;;;;;;;23.32;51.32;102017.63;5024423;28;20495;-75
2021/07/23 09:44:11;;;;;;;0.93;0.93;;;;;;;23.33;51.46;102013.13;5023976;28;20065;-75
2021/07/23 09:46:46;;;;;;;0.90;0.90;;;;;;;23.35;51.55;102004.00;5023188;28;20115;-75
2021/07/23 09:49:29;;;;;;;0.77;0.77;;;;;;;23.37;51.46;102004.66;5020585;28;20802;-75
2021/07/23 09:52:02;;;;;;;0.80;0.80;;;;;;;23.35;51.19;102004.00;5023847;28;20443;-75
2021/07/23 09:54:28;;;;;;;0.80;0.80;;;;;;;23.32;51.26;101998.19;5026226;28;20030;-75
2021/07/23 09:56:53;;;;;;;1.00;1.00;;;;;;;23.34;51.46;101998.84;5024602;28;20493;-75
2021/07/23 09:59:32;;;;;;;0.90;0.90;;;;;;;23.34;51.21;101999.69;5026358;28;20041;-75
2021/07/23 10:02:03;;;;;;;0.98;0.98;;;;;;;23.37;51.35;102001.19;5025742;28;20171;-74
2021/07/23 10:04:47;;;;;;;1.00;1.00;;;;;;;23.39;51.27;101992.03;5019873;28;20788;-75
2021/07/23 10:07:18;;;;;;;1.15;1.15;;;;;;;23.39;51.13;101993.84;5027057;28;20546;-75
2021/07/23 10:09:44;;;;;;;0.95;0.95;;;;;;;23.39;51.37;101993.84;5027198;28;20041;-75
2021/07/23 10:12:12;;;;;;;0.90;0.90;;;;;;;23.42;51.48;101993.50;5026581;28;20091;-75
2021/07/23 10:14:40;;;;;;;0.90;0.90;;;;;;;23.42;51.41;101990.84;5023791;28;20072;-75
2021/07/23 10:17:08;;;;;;;0.80;0.80;;;;;;;23.41;51.45;101991.84;5008904;28;20092;-75
2021/07/23 10:19:36;;;;;;;0.80;0.80;;;;;;;23.39;51.27;101991.19;5022442;28;20399;-74
2021/07/23 10:22:03;;;;;;;0.80;0.80;;;;;;;23.41;51.41;101983.88;5020638;28;20067;-75
2021/07/23 10:24:33;;;;;;;0.85;0.85;;;;;;;23.40;51.26;101991.03;5025101;28;20047;-75
2021/07/23 10:27:05;;;;;;;1.20;1.20;;;;;;;23.41;51.12;101986.53;5024837;28;20037;-77
2021/07/23 10:29:51;;;;;;;0.90;0.90;;;;;;;23.44;51.16;101980.84;5023378;28;20061;-76
2021/07/23 10:32:22;;;;;;;1.00;1.00;;;;;;;23.45;50.99;101990.47;5056268;28;20086;-75
2021/07/23 10:34:49;;;;;;;1.10;1.10;;;;;;;23.43;51.38;101981.84;5023707;28;20033;-77
2021/07/23 10:37:39;;;;;;;1.10;1.10;;;;;;;23.42;51.47;101983.69;5023138;28;20101;-75
2021/07/23 10:40:08;;;;;;;1.10;1.10;;;;;;;23.42;51.14;101983.69;5021880;28;20037;-75
2021/07/23 10:42:40;;;;;;;1.10;1.10;;;;;;;23.42;51.11;101977.56;5007322;28;20068;-75
2021/07/23 10:45:08;;;;;;;0.90;0.90;;;;;;;23.43;50.99;101972.06;5040275;28;20124;-76
2021/07/23 10:47:42;;;;;;;0.90;0.90;;;;;;;23.43;51.07;101980.03;5021952;28;20065;-76
2021/07/23 10:50:11;;;;;;;0.90;0.90;;;;;;;23.40;51.21;101969.75;5023138;28;20086;-76
2021/07/23 10:52:37;;;;;;;0.90;0.90;;;;;;;23.45;51.29;101974.53;5025126;28;20044;-76
2021/07/23 10:55:17;;;;;;;1.15;1.15;;;;;;;23.45;51.16;101969.22;5021701;28;20578;-76
2021/07/23 10:57:44;;;;;;;0.85;0.85;;;;;;;23.44;51.18;101971.06;5022744;28;20048;-74
2021/07/23 11:00:10;;;;;;;0.80;0.80;;;;;;;23.43;51.50;101969.41;5022053;28;20754;-77
2021/07/23 11:02:36;;;;;;;0.85;0.85;;;;;;;23.47;51.50;101970.69;5017113;28;20041;-79
2021/07/23 11:05:10;;;;;;;0.60;0.60;;;;;;;23.49;51.83;101966.03;5021331;28;20393;-78
2021/07/23 11:07:37;;;;;;;0.70;0.70;;;;;;;23.44;51.73;101964.91;5051823;28;20046;-78
2021/07/23 11:10:08;;;;;;;0.70;0.70;;;;;;;23.45;51.44;101967.38;5056709;28;20087;-78
2021/07/23 11:12:42;;;;;;;0.85;0.85;;;;;;;23.48;51.55;101960.88;5022142;28;20102;-78
2021/07/23 11:15:12;;;;;;;0.80;0.80;;;;;;;23.46;51.61;101960.25;5026453;28;20064;-78
2021/07/23 11:17:55;;;;;;;0.73;0.73;;;;;;;23.48;51.65;101959.06;5018061;28;20087;-78
2021/07/23 11:20:23;;;;;;;0.40;0.40;;;;;;;23.49;51.61;101963.38;5053346;28;20379;-78
2021/07/23 11:22:50;;;;;;;0.65;0.65;;;;;;;23.47;51.58;101957.41;5038788;28;20045;-78
2021/07/23 11:25:16;;;;;;;0.65;0.65;;;;;;;23.48;51.66;101959.06;5017966;28;20041;-78
2021/07/23 11:27:42;;;;;;;0.90;0.90;;;;;;;23.48;51.58;101953.72;5020726;28;20041;-77
2021/07/23 11:30:16;;;;;;;0.60;0.60;;;;;;;23.45;51.53;101948.78;5021259;28;20038;-78
2021/07/23 11:32:59;;;;;;;0.70;0.70;;;;;;;23.44;51.68;101941.81;5020433;28;20036;-78